createdAt,value
2023-05-05T00:00:10.126Z,36.17
2023-05-05T00:01:10.176Z,36.18
2023-05-05T00:02:10.170Z,36.21
2023-05-05T00:03:10.249Z,36.18
2023-05-05T00:04:10.156Z,36.17
2023-05-05T00:05:10.170Z,36.14
2023-05-05T00:06:10.269Z,36.17
2023-05-05T00:07:10.202Z,36.16
2023-05-05T00:08:10.573Z,36.11
2023-05-05T00:09:10.243Z,36.15
2023-05-05T00:10:10.335Z,36.20
2023-05-05T00:11:10.265Z,36.15
2023-05-05T00:12:10.242Z,36.16
2023-05-05T00:13:10.416Z,36.16
2023-05-05T00:14:10.221Z,36.17
2023-05-05T00:15:10.224Z,36.15
2023-05-05T00:16:10.256Z,36.14
2023-05-05T00:17:10.324Z,36.13
2023-05-05T00:18:10.254Z,36.14
2023-05-05T00:19:10.216Z,36.16
2023-05-05T00:20:10.402Z,36.10
2023-05-05T00:21:10.198Z,36.11
2023-05-05T00:22:10.229Z,36.16
2023-05-05T00:23:10.187Z,36.14
2023-05-05T00:24:10.194Z,36.20
2023-05-05T00:25:10.193Z,36.10
2023-05-05T00:26:10.180Z,36.16
2023-05-05T00:27:10.163Z,36.11
2023-05-05T00:28:10.180Z,36.14
2023-05-05T00:29:10.154Z,36.12
2023-05-05T00:30:10.251Z,36.10
2023-05-05T00:31:10.204Z,36.10
2023-05-05T00:32:10.141Z,36.10
2023-05-05T00:33:10.161Z,36.14
2023-05-05T00:34:10.151Z,36.07
2023-05-05T00:35:10.171Z,36.10
2023-05-05T00:36:10.126Z,36.16
2023-05-05T00:37:10.170Z,36.09
2023-05-05T00:38:10.115Z,36.15
2023-05-05T00:39:10.127Z,36.11
2023-05-05T00:40:10.263Z,36.07
2023-05-05T00:41:10.117Z,36.09
2023-05-05T00:42:10.130Z,36.11
2023-05-05T00:43:10.122Z,36.13
2023-05-05T00:44:10.151Z,36.11
2023-05-05T00:45:10.118Z,36.13
2023-05-05T00:46:10.132Z,36.09
2023-05-05T00:47:10.097Z,36.11
2023-05-05T00:48:10.161Z,36.07
2023-05-05T00:49:10.188Z,36.09
2023-05-05T00:50:10.119Z,36.07
2023-05-05T00:51:10.065Z,36.07
2023-05-05T00:52:10.073Z,36.09
2023-05-05T00:53:10.079Z,36.09
2023-05-05T00:54:10.060Z,36.12
2023-05-05T00:55:10.104Z,36.09
2023-05-05T00:56:10.092Z,36.09
2023-05-05T00:57:10.140Z,36.06
2023-05-05T00:58:10.111Z,36.10
2023-05-05T00:59:10.073Z,36.10
2023-05-05T01:00:10.300Z,36.09
2023-05-05T01:01:10.135Z,36.07
2023-05-05T01:02:10.112Z,36.11
2023-05-05T01:03:10.230Z,36.05
2023-05-05T01:04:10.065Z,36.01
2023-05-05T01:05:10.103Z,36.07
2023-05-05T01:06:10.096Z,36.10
2023-05-05T01:07:10.108Z,36.08
2023-05-05T01:08:10.094Z,36.06
2023-05-05T01:09:10.041Z,36.07
2023-05-05T01:10:19.756Z,36.00
2023-05-05T01:11:11.024Z,36.08
2023-05-05T01:12:10.073Z,36.06
2023-05-05T01:13:10.150Z,36.03
2023-05-05T01:14:10.010Z,36.03
2023-05-05T01:15:10.040Z,36.06
2023-05-05T01:16:10.048Z,36.02
2023-05-05T01:17:10.036Z,36.04
2023-05-05T01:18:09.983Z,36.03
2023-05-05T01:19:10.013Z,36.05
2023-05-05T01:20:10.165Z,36.02
2023-05-05T01:21:10.009Z,36.00
2023-05-05T01:22:09.958Z,36.03
2023-05-05T01:23:09.951Z,36.00
2023-05-05T01:24:09.967Z,35.98
2023-05-05T01:25:09.941Z,36.04
2023-05-05T01:26:09.940Z,36.03
2023-05-05T01:27:09.951Z,35.99
2023-05-05T01:28:09.918Z,36.03
2023-05-05T01:29:09.948Z,36.04
2023-05-05T01:30:10.043Z,36.02
2023-05-05T01:31:09.972Z,36.05
2023-05-05T01:32:09.907Z,36.06
2023-05-05T01:33:09.901Z,36.00
2023-05-05T01:34:09.892Z,35.98
2023-05-05T01:35:09.869Z,36.02
2023-05-05T01:36:09.865Z,35.99
2023-05-05T01:37:09.870Z,36.00
2023-05-05T01:38:09.859Z,35.97
2023-05-05T01:39:09.828Z,35.99
2023-05-05T01:40:09.970Z,35.98
2023-05-05T01:41:09.869Z,35.95
2023-05-05T01:42:09.828Z,36.00
2023-05-05T01:43:09.834Z,35.98
2023-05-05T01:44:09.806Z,35.98
2023-05-05T01:45:09.823Z,36.01
2023-05-05T01:46:09.863Z,35.96
2023-05-05T01:47:09.807Z,35.96
2023-05-05T01:48:09.778Z,35.97
2023-05-05T01:49:09.821Z,35.96
2023-05-05T01:50:09.916Z,36.00
2023-05-05T01:51:09.776Z,35.96
2023-05-05T01:52:09.748Z,36.03
2023-05-05T01:53:09.767Z,35.97
2023-05-05T01:54:09.758Z,35.96
2023-05-05T01:55:09.749Z,36.00
2023-05-05T01:56:09.723Z,35.93
2023-05-05T01:57:09.756Z,35.96
2023-05-05T01:58:09.729Z,35.99
2023-05-05T01:59:09.708Z,35.96
2023-05-05T02:00:09.906Z,35.91
2023-05-05T02:01:09.733Z,35.95
2023-05-05T02:02:09.713Z,35.95
2023-05-05T02:03:09.903Z,35.95
2023-05-05T02:04:09.673Z,35.93
2023-05-05T02:05:09.678Z,35.99
2023-05-05T02:06:09.660Z,35.95
2023-05-05T02:07:09.649Z,35.96
2023-05-05T02:08:09.658Z,35.95
2023-05-05T02:09:09.642Z,35.93
2023-05-05T02:10:09.849Z,35.93
2023-05-05T02:11:09.669Z,35.95
2023-05-05T02:12:09.631Z,35.95
2023-05-05T02:13:09.741Z,35.95
2023-05-05T02:14:09.644Z,35.95
2023-05-05T02:15:09.620Z,35.92
2023-05-05T02:16:09.629Z,35.96
2023-05-05T02:17:09.578Z,35.96
2023-05-05T02:18:09.580Z,35.95
2023-05-05T02:19:09.554Z,35.96
2023-05-05T02:20:09.735Z,35.92
2023-05-05T02:21:09.563Z,35.92
2023-05-05T02:22:09.559Z,35.93
2023-05-05T02:23:09.565Z,35.92
2023-05-05T02:24:09.531Z,35.89
2023-05-05T02:25:09.529Z,35.91
2023-05-05T02:26:09.512Z,35.89
2023-05-05T02:27:09.514Z,35.86
2023-05-05T02:28:09.532Z,35.91
2023-05-05T02:29:09.599Z,35.92
2023-05-05T02:30:09.644Z,35.89
2023-05-05T02:31:09.562Z,35.88
2023-05-05T02:32:09.519Z,35.91
2023-05-05T02:33:09.541Z,35.89
2023-05-05T02:34:09.458Z,35.90
2023-05-05T02:35:09.476Z,35.95
2023-05-05T02:36:09.470Z,35.87
2023-05-05T02:37:09.468Z,35.91
2023-05-05T02:38:09.446Z,35.88
2023-05-05T02:39:09.445Z,35.92
2023-05-05T02:40:09.592Z,35.88
2023-05-05T02:41:09.417Z,35.86
2023-05-05T02:42:09.420Z,35.92
2023-05-05T02:43:09.445Z,35.95
2023-05-05T02:44:09.408Z,35.87
2023-05-05T02:45:09.400Z,35.88
2023-05-05T02:46:09.490Z,35.84
2023-05-05T02:47:09.388Z,35.89
2023-05-05T02:48:09.445Z,35.87
2023-05-05T02:49:09.375Z,35.83
2023-05-05T02:50:09.699Z,35.87
2023-05-05T02:51:09.411Z,35.88
2023-05-05T02:52:09.364Z,35.87
2023-05-05T02:53:09.413Z,35.89
2023-05-05T02:54:09.391Z,35.85
2023-05-05T02:55:09.390Z,35.83
2023-05-05T02:56:09.427Z,35.82
2023-05-05T02:57:09.382Z,35.84
2023-05-05T02:58:09.405Z,35.85
2023-05-05T02:59:09.354Z,35.80
2023-05-05T03:00:09.578Z,35.88
2023-05-05T03:01:09.425Z,35.84
2023-05-05T03:02:09.340Z,35.82
2023-05-05T03:03:09.448Z,35.81
2023-05-05T03:04:09.349Z,35.82
2023-05-05T03:05:09.387Z,35.84
2023-05-05T03:06:09.332Z,35.82
2023-05-05T03:07:09.406Z,35.81
2023-05-05T03:08:09.374Z,35.82
2023-05-05T03:09:09.400Z,35.83
2023-05-05T03:10:09.794Z,35.80
2023-05-05T03:11:09.371Z,35.85
2023-05-05T03:12:09.344Z,35.81
2023-05-05T03:13:09.445Z,35.81
2023-05-05T03:14:09.382Z,35.78
2023-05-05T03:15:09.348Z,35.82
2023-05-05T03:16:09.391Z,35.82
2023-05-05T03:17:09.337Z,35.88
2023-05-05T03:18:09.349Z,35.84
2023-05-05T03:19:09.353Z,35.85
2023-05-05T03:20:09.414Z,35.82
2023-05-05T03:21:09.304Z,35.85
2023-05-05T03:22:09.313Z,35.85
2023-05-05T03:23:09.351Z,35.80
2023-05-05T03:24:09.312Z,35.80
2023-05-05T03:25:09.327Z,35.81
2023-05-05T03:26:09.310Z,35.78
2023-05-05T03:27:09.313Z,35.78
2023-05-05T03:28:09.323Z,35.80
2023-05-05T03:29:09.299Z,35.82
2023-05-05T03:30:09.585Z,35.82
2023-05-05T03:31:09.336Z,35.77
2023-05-05T03:32:09.371Z,35.82
2023-05-05T03:33:09.378Z,35.80
2023-05-05T03:34:09.348Z,35.80
2023-05-05T03:35:09.291Z,35.77
2023-05-05T03:36:09.326Z,35.80
2023-05-05T03:37:09.303Z,35.76
2023-05-05T03:38:09.303Z,35.82
2023-05-05T03:39:09.284Z,35.80
2023-05-05T03:40:09.481Z,35.84
2023-05-05T03:41:09.315Z,35.82
2023-05-05T03:42:09.283Z,35.77
2023-05-05T03:43:09.301Z,35.81
2023-05-05T03:44:09.296Z,35.81
2023-05-05T03:45:09.314Z,35.81
2023-05-05T03:46:09.321Z,35.81
2023-05-05T03:47:09.283Z,35.81
2023-05-05T03:48:09.384Z,35.78
2023-05-05T03:49:09.308Z,35.74
2023-05-05T03:50:09.433Z,35.76
2023-05-05T03:51:09.306Z,35.74
2023-05-05T03:52:09.276Z,35.76
2023-05-05T03:53:09.288Z,35.74
2023-05-05T03:54:09.252Z,35.78
2023-05-05T03:55:09.281Z,35.72
2023-05-05T03:56:09.287Z,35.77
2023-05-05T03:57:09.256Z,35.74
2023-05-05T03:58:09.278Z,35.77
2023-05-05T03:59:09.247Z,35.72
2023-05-05T04:00:09.334Z,35.70
2023-05-05T04:01:09.282Z,35.73
2023-05-05T04:02:09.343Z,35.73
2023-05-05T04:03:09.428Z,35.73
2023-05-05T04:04:09.271Z,35.76
2023-05-05T04:05:09.265Z,35.74
2023-05-05T04:06:09.281Z,35.73
2023-05-05T04:07:09.274Z,35.72
2023-05-05T04:08:09.248Z,35.74
2023-05-05T04:09:09.235Z,35.71
2023-05-05T04:10:09.389Z,35.72
2023-05-05T04:11:09.232Z,35.76
2023-05-05T04:12:09.237Z,35.72
2023-05-05T04:13:09.394Z,35.76
2023-05-05T04:14:09.227Z,35.73
2023-05-05T04:15:09.239Z,35.72
2023-05-05T04:16:09.250Z,35.70
2023-05-05T04:17:09.238Z,35.73
2023-05-05T04:18:09.308Z,35.74
2023-05-05T04:19:09.216Z,35.68
2023-05-05T04:20:09.471Z,35.74
2023-05-05T04:21:09.213Z,35.69
2023-05-05T04:22:09.248Z,35.70
2023-05-05T04:23:09.242Z,35.73
2023-05-05T04:24:09.217Z,35.72
2023-05-05T04:25:09.225Z,35.73
2023-05-05T04:26:09.218Z,35.69
2023-05-05T04:27:09.236Z,35.69
2023-05-05T04:28:09.282Z,35.69
2023-05-05T04:29:09.219Z,35.69
2023-05-05T04:30:09.428Z,35.70
2023-05-05T04:31:09.264Z,35.69
2023-05-05T04:32:09.270Z,35.69
2023-05-05T04:33:09.279Z,35.70
2023-05-05T04:34:09.248Z,35.65
2023-05-05T04:35:09.255Z,35.66
2023-05-05T04:36:09.299Z,35.68
2023-05-05T04:37:09.247Z,35.64
2023-05-05T04:38:09.260Z,35.70
2023-05-05T04:39:09.253Z,35.65
2023-05-05T04:40:09.511Z,35.65
2023-05-05T04:41:09.282Z,35.69
2023-05-05T04:42:09.235Z,35.64
2023-05-05T04:43:09.252Z,35.71
2023-05-05T04:44:09.239Z,35.69
2023-05-05T04:45:09.232Z,35.69
2023-05-05T04:46:09.261Z,35.64
2023-05-05T04:47:09.234Z,35.65
2023-05-05T04:48:09.256Z,35.62
2023-05-05T04:49:09.323Z,35.65
2023-05-05T04:50:09.380Z,35.69
2023-05-05T04:51:09.239Z,35.60
2023-05-05T04:52:09.225Z,35.62
2023-05-05T04:53:09.204Z,35.66
2023-05-05T04:54:09.247Z,35.61
2023-05-05T04:55:09.227Z,35.68
2023-05-05T04:56:09.239Z,35.65
2023-05-05T04:57:09.219Z,35.62
2023-05-05T04:58:09.243Z,35.61
2023-05-05T04:59:09.255Z,35.61
2023-05-05T05:00:09.414Z,35.54
2023-05-05T05:01:09.220Z,35.57
2023-05-05T05:02:09.317Z,35.57
2023-05-05T05:03:09.260Z,35.60
2023-05-05T05:04:09.219Z,35.59
2023-05-05T05:05:09.226Z,35.56
2023-05-05T05:06:09.233Z,35.53
2023-05-05T05:07:09.255Z,35.55
2023-05-05T05:08:09.260Z,35.55
2023-05-05T05:09:09.305Z,35.53
2023-05-05T05:10:09.460Z,35.56
2023-05-05T05:11:09.255Z,35.51
2023-05-05T05:12:09.210Z,35.52
2023-05-05T05:13:11.250Z,35.48
2023-05-05T05:14:09.207Z,35.57
2023-05-05T05:15:09.207Z,35.53
2023-05-05T05:16:09.221Z,35.52
2023-05-05T05:17:09.206Z,35.53
2023-05-05T05:18:09.235Z,35.56
2023-05-05T05:19:09.176Z,35.50
2023-05-05T05:20:09.685Z,35.50
2023-05-05T05:21:09.167Z,35.55
2023-05-05T05:22:09.166Z,35.52
2023-05-05T05:23:09.144Z,35.52
2023-05-05T05:24:09.159Z,35.54
2023-05-05T05:25:09.183Z,35.51
2023-05-05T05:26:09.118Z,35.52
2023-05-05T05:27:10.104Z,35.51
2023-05-05T05:28:10.633Z,35.46
2023-05-05T05:29:09.088Z,35.51
2023-05-05T05:30:09.290Z,35.52
2023-05-05T05:31:09.204Z,35.48
2023-05-05T05:32:09.267Z,35.49
2023-05-05T05:33:09.121Z,35.48
2023-05-05T05:34:10.762Z,35.59
2023-05-05T05:35:09.055Z,35.51
2023-05-05T05:36:09.486Z,35.35
2023-05-05T05:37:09.031Z,35.46
2023-05-05T05:38:09.011Z,35.73
2023-05-05T05:39:09.016Z,35.71
2023-05-05T05:40:09.178Z,35.81
2023-05-05T05:41:09.023Z,35.87
2023-05-05T05:42:08.992Z,36.19
2023-05-05T05:43:09.092Z,36.16
2023-05-05T05:44:09.420Z,36.46
2023-05-05T05:45:08.987Z,36.69
2023-05-05T05:46:09.582Z,36.84
2023-05-05T05:47:08.967Z,36.81
2023-05-05T05:48:08.995Z,37.07
2023-05-05T05:49:08.945Z,37.14
2023-05-05T05:50:09.069Z,37.10
2023-05-05T05:51:08.930Z,37.21
2023-05-05T05:52:08.915Z,37.40
2023-05-05T05:53:08.931Z,37.17
2023-05-05T05:54:09.006Z,37.36
2023-05-05T05:55:08.912Z,37.66
2023-05-05T05:56:08.946Z,37.39
2023-05-05T05:57:08.911Z,37.70
2023-05-05T05:58:08.868Z,37.74
2023-05-05T05:59:08.884Z,37.82
2023-05-05T06:00:09.118Z,37.91
2023-05-05T06:01:08.863Z,37.93
2023-05-05T06:02:08.897Z,38.07
2023-05-05T06:03:08.995Z,38.18
2023-05-05T06:04:08.907Z,38.20
2023-05-05T06:05:08.858Z,38.42
2023-05-05T06:06:08.866Z,38.36
2023-05-05T06:07:08.862Z,38.63
2023-05-05T06:08:08.838Z,38.84
2023-05-05T06:09:08.825Z,38.67
2023-05-05T06:10:25.956Z,38.83
2023-05-05T06:11:09.780Z,38.93
2023-05-05T06:12:08.784Z,38.89
2023-05-05T06:13:08.887Z,39.04
2023-05-05T06:14:08.797Z,39.00
2023-05-05T06:15:08.769Z,38.48
2023-05-05T06:16:08.765Z,38.56
2023-05-05T06:17:08.763Z,38.42
2023-05-05T06:18:08.861Z,38.26
2023-05-05T06:19:08.737Z,37.68
2023-05-05T06:20:08.923Z,37.92
2023-05-05T06:21:08.741Z,37.60
2023-05-05T06:22:08.713Z,37.67
2023-05-05T06:23:08.713Z,37.69
2023-05-05T06:24:08.727Z,37.53
2023-05-05T06:25:08.695Z,37.38
2023-05-05T06:26:08.674Z,37.30
2023-05-05T06:27:08.682Z,37.37
2023-05-05T06:28:08.702Z,37.24
2023-05-05T06:29:11.021Z,37.05
2023-05-05T06:30:08.905Z,37.02
2023-05-05T06:31:08.711Z,36.88
2023-05-05T06:32:08.627Z,36.96
2023-05-05T06:33:08.679Z,36.88
2023-05-05T06:34:08.618Z,36.88
2023-05-05T06:35:08.613Z,36.58
2023-05-05T06:36:08.681Z,34.66
2023-05-05T06:37:08.766Z,35.55
2023-05-05T06:38:08.595Z,35.39
2023-05-05T06:39:08.901Z,35.40
2023-05-05T06:40:08.778Z,34.83
2023-05-05T06:41:08.588Z,34.03
2023-05-05T06:42:08.570Z,33.83
2023-05-05T06:43:08.572Z,33.50
2023-05-05T06:44:08.560Z,33.13
2023-05-05T06:45:08.572Z,33.09
2023-05-05T06:46:08.558Z,32.97
2023-05-05T06:47:09.001Z,32.77
2023-05-05T06:48:08.632Z,32.63
2023-05-05T06:49:08.534Z,32.69
2023-05-05T06:50:08.815Z,32.47
2023-05-05T06:51:08.518Z,32.57
2023-05-05T06:52:08.528Z,32.44
2023-05-05T06:53:08.507Z,32.42
2023-05-05T06:54:08.463Z,32.45
2023-05-05T06:55:08.523Z,32.60
2023-05-05T06:56:08.463Z,32.54
2023-05-05T06:57:08.481Z,32.66
2023-05-05T06:58:08.473Z,32.67
2023-05-05T06:59:08.891Z,32.67
2023-05-05T07:00:08.676Z,32.55
2023-05-05T07:01:08.534Z,32.57
2023-05-05T07:02:08.433Z,32.41
2023-05-05T07:03:08.501Z,32.35
2023-05-05T07:04:08.856Z,32.36
2023-05-05T07:05:08.416Z,32.29
2023-05-05T07:06:08.395Z,32.21
2023-05-05T07:07:08.389Z,32.26
2023-05-05T07:08:08.396Z,32.27
2023-05-05T07:09:08.400Z,32.25
2023-05-05T07:10:08.535Z,32.28
2023-05-05T07:11:08.494Z,32.20
2023-05-05T07:12:08.502Z,32.19
2023-05-05T07:13:08.549Z,32.09
2023-05-05T07:14:08.654Z,32.14
2023-05-05T07:15:23.529Z,32.07
2023-05-05T07:16:09.653Z,31.67
2023-05-05T07:17:08.551Z,31.18
2023-05-05T07:18:08.656Z,31.52
2023-05-05T07:19:08.535Z,31.26
2023-05-05T07:20:09.023Z,31.39
2023-05-05T07:21:08.537Z,31.05
2023-05-05T07:22:08.504Z,31.15
2023-05-05T07:23:08.496Z,30.83
2023-05-05T07:24:08.562Z,30.89
2023-05-05T07:25:08.609Z,30.82
2023-05-05T07:26:08.616Z,30.74
2023-05-05T07:27:08.628Z,30.72
2023-05-05T07:28:08.668Z,30.74
2023-05-05T07:29:08.953Z,30.83
2023-05-05T07:30:13.121Z,30.72
2023-05-05T07:31:09.749Z,31.36
2023-05-05T07:32:08.775Z,31.47
2023-05-05T07:33:08.902Z,31.60
2023-05-05T07:34:08.911Z,32.14
2023-05-05T07:35:08.823Z,32.17
2023-05-05T07:36:08.769Z,32.50
2023-05-05T07:37:08.711Z,32.58
2023-05-05T07:38:09.480Z,32.77
2023-05-05T07:39:08.676Z,32.88
2023-05-05T07:40:09.040Z,33.19
2023-05-05T07:41:08.787Z,33.02
2023-05-05T07:42:08.849Z,33.15
2023-05-05T07:43:08.772Z,33.14
2023-05-05T07:44:08.791Z,33.28
2023-05-05T07:45:08.805Z,33.57
2023-05-05T07:46:08.871Z,33.72
2023-05-05T07:47:08.846Z,33.82
2023-05-05T07:48:08.883Z,34.00
2023-05-05T07:49:08.923Z,33.82
2023-05-05T07:50:09.066Z,33.77
2023-05-05T07:51:08.836Z,33.66
2023-05-05T07:52:08.912Z,33.68
2023-05-05T07:53:14.417Z,33.62
2023-05-05T07:54:09.925Z,33.55
2023-05-05T07:55:08.808Z,33.44
2023-05-05T07:56:08.898Z,33.16
2023-05-05T07:57:08.872Z,33.06
2023-05-05T07:58:08.842Z,33.21
2023-05-05T07:59:08.804Z,33.24
2023-05-05T08:00:09.001Z,33.02
2023-05-05T08:01:08.796Z,33.16
2023-05-05T08:02:08.873Z,33.51
2023-05-05T08:03:11.631Z,33.50
2023-05-05T08:04:09.063Z,33.84
2023-05-05T08:05:09.256Z,33.92
2023-05-05T08:06:08.741Z,34.08
2023-05-05T08:07:08.727Z,34.16
2023-05-05T08:08:08.823Z,34.43
2023-05-05T08:09:08.784Z,34.48
2023-05-05T08:10:08.714Z,34.62
2023-05-05T08:11:08.706Z,34.83
2023-05-05T08:12:08.759Z,34.89
2023-05-05T08:13:08.873Z,35.02
2023-05-05T08:14:08.683Z,35.11
2023-05-05T08:15:09.203Z,35.15
2023-05-05T08:16:08.722Z,35.28
2023-05-05T08:17:08.689Z,35.57
2023-05-05T08:18:08.671Z,35.49
2023-05-05T08:19:21.147Z,35.52
2023-05-05T08:20:09.662Z,35.79
2023-05-05T08:21:08.734Z,36.05
2023-05-05T08:22:08.689Z,36.05
2023-05-05T08:23:08.785Z,36.27
2023-05-05T08:24:09.041Z,36.47
2023-05-05T08:25:08.803Z,36.73
2023-05-05T08:26:08.682Z,36.58
2023-05-05T08:27:08.649Z,36.36
2023-05-05T08:28:08.581Z,36.49
2023-05-05T08:29:08.677Z,36.27
2023-05-05T08:30:08.628Z,36.34
2023-05-05T08:31:08.645Z,36.30
2023-05-05T08:32:08.567Z,36.29
2023-05-05T08:33:08.603Z,36.46
2023-05-05T08:34:08.561Z,36.30
2023-05-05T08:35:08.844Z,36.46
2023-05-05T08:36:08.600Z,36.51
2023-05-05T08:37:08.660Z,36.59
2023-05-05T08:38:08.750Z,36.67
2023-05-05T08:39:08.762Z,36.67
2023-05-05T08:40:08.895Z,36.68
2023-05-05T08:41:08.875Z,36.58
2023-05-05T08:42:08.964Z,36.53
2023-05-05T08:43:09.063Z,36.57
2023-05-05T08:44:09.466Z,36.62
2023-05-05T08:45:09.667Z,36.47
2023-05-05T08:46:09.962Z,36.81
2023-05-05T08:47:09.326Z,36.85
2023-05-05T08:48:09.296Z,36.86
2023-05-05T08:49:09.310Z,36.94
2023-05-05T08:50:09.342Z,36.95
2023-05-05T08:51:09.415Z,36.79
2023-05-05T08:52:09.443Z,36.74
2023-05-05T08:53:09.522Z,36.49
2023-05-05T08:54:09.530Z,36.42
2023-05-05T08:55:09.730Z,36.31
2023-05-05T08:56:09.680Z,36.15
2023-05-05T08:57:09.638Z,35.87
2023-05-05T08:58:09.683Z,35.60
2023-05-05T08:59:09.767Z,35.63
2023-05-05T09:00:09.790Z,35.40
2023-05-05T09:01:09.933Z,35.43
2023-05-05T09:02:09.954Z,35.34
2023-05-05T09:03:10.029Z,35.10
2023-05-05T09:04:09.880Z,35.12
2023-05-05T09:05:10.174Z,34.87
2023-05-05T09:06:10.021Z,34.74
2023-05-05T09:07:10.009Z,34.70
2023-05-05T09:08:10.025Z,34.36
2023-05-05T09:09:10.050Z,34.41
2023-05-05T09:10:10.097Z,34.52
2023-05-05T09:11:10.084Z,34.48
2023-05-05T09:12:10.219Z,34.48
2023-05-05T09:13:10.185Z,34.65
2023-05-05T09:14:10.145Z,34.51
2023-05-05T09:15:10.384Z,34.17
2023-05-05T09:16:10.159Z,34.27
2023-05-05T09:17:10.222Z,34.20
2023-05-05T09:18:10.222Z,34.13
2023-05-05T09:19:10.194Z,34.14
2023-05-05T09:20:10.180Z,34.28
2023-05-05T09:21:10.191Z,34.25
2023-05-05T09:22:10.241Z,34.35
2023-05-05T09:23:10.209Z,34.54
2023-05-05T09:24:10.432Z,34.43
2023-05-05T09:25:10.350Z,34.37
2023-05-05T09:26:10.240Z,34.34
2023-05-05T09:27:10.236Z,34.31
2023-05-05T09:28:10.409Z,34.12
2023-05-05T09:29:10.237Z,34.05
2023-05-05T09:30:10.244Z,34.21
2023-05-05T09:31:10.253Z,34.24
2023-05-05T09:32:10.262Z,34.21
2023-05-05T09:33:10.289Z,33.57
2023-05-05T09:34:10.524Z,33.69
2023-05-05T09:35:10.303Z,32.75
2023-05-05T09:36:10.225Z,32.00
2023-05-05T09:37:10.222Z,32.11
2023-05-05T09:38:10.234Z,31.83
2023-05-05T09:39:10.257Z,31.73
2023-05-05T09:40:11.021Z,31.62
2023-05-05T09:41:10.257Z,31.66
2023-05-05T09:42:10.306Z,31.46
2023-05-05T09:43:10.327Z,31.67
2023-05-05T09:44:11.506Z,31.21
2023-05-05T09:45:10.480Z,31.08
2023-05-05T09:46:10.465Z,31.08
2023-05-05T09:47:26.015Z,31.30
2023-05-05T09:48:11.546Z,31.22
2023-05-05T09:49:10.453Z,31.05
2023-05-05T09:50:10.575Z,31.09
2023-05-05T09:51:10.430Z,31.18
2023-05-05T09:52:10.496Z,31.00
2023-05-05T09:53:10.449Z,30.99
2023-05-05T09:54:10.419Z,30.98
2023-05-05T09:55:10.418Z,31.00
2023-05-05T09:56:10.479Z,31.02
2023-05-05T09:57:10.402Z,30.90
2023-05-05T09:58:10.490Z,30.60
2023-05-05T09:59:10.516Z,30.70
2023-05-05T10:00:10.686Z,30.63
2023-05-05T10:01:10.594Z,30.63
2023-05-05T10:02:10.577Z,30.74
2023-05-05T10:03:10.745Z,30.69
2023-05-05T10:04:10.681Z,30.66
2023-05-05T10:05:10.897Z,30.55
2023-05-05T10:06:10.770Z,30.46
2023-05-05T10:07:10.878Z,30.43
2023-05-05T10:08:10.897Z,30.39
2023-05-05T10:09:10.995Z,30.33
2023-05-05T10:10:11.240Z,30.49
2023-05-05T10:11:11.116Z,30.43
2023-05-05T10:12:11.162Z,30.46
2023-05-05T10:13:11.354Z,30.43
2023-05-05T10:14:11.319Z,30.30
2023-05-05T10:15:11.426Z,30.29
2023-05-05T10:16:11.473Z,30.11
2023-05-05T10:17:11.496Z,30.10
2023-05-05T10:18:11.605Z,30.10
2023-05-05T10:19:11.613Z,30.00
2023-05-05T10:20:11.882Z,30.04
2023-05-05T10:21:11.714Z,30.10
2023-05-05T10:22:11.755Z,30.14
2023-05-05T10:23:11.822Z,30.12
2023-05-05T10:24:11.895Z,30.23
2023-05-05T10:25:11.921Z,30.08
2023-05-05T10:26:11.946Z,30.11
2023-05-05T10:27:12.772Z,30.07
2023-05-05T10:28:12.468Z,29.73
2023-05-05T10:29:11.992Z,29.95
2023-05-05T10:30:12.043Z,30.13
2023-05-05T10:31:24.224Z,30.58
2023-05-05T10:32:40.670Z,30.74
2023-05-05T10:33:30.202Z,30.85
2023-05-05T10:34:13.155Z,31.07
2023-05-05T10:35:12.120Z,31.22
2023-05-05T10:36:12.139Z,31.37
2023-05-05T10:37:12.113Z,31.42
2023-05-05T10:38:12.115Z,31.65
2023-05-05T10:39:12.086Z,31.58
2023-05-05T10:40:12.032Z,31.70
2023-05-05T10:41:12.155Z,31.81
2023-05-05T10:42:12.036Z,31.90
2023-05-05T10:43:12.473Z,31.99
2023-05-05T10:44:12.055Z,32.10
2023-05-05T10:45:12.554Z,32.15
2023-05-05T10:46:12.039Z,32.17
2023-05-05T10:47:12.087Z,32.39
2023-05-05T10:48:12.240Z,32.45
2023-05-05T10:49:13.187Z,32.59
2023-05-05T10:50:12.476Z,32.60
2023-05-05T10:51:11.970Z,32.65
2023-05-05T10:52:11.951Z,32.85
2023-05-05T10:53:11.991Z,32.91
2023-05-05T10:54:12.026Z,33.10
2023-05-05T10:55:11.973Z,33.22
2023-05-05T10:56:11.910Z,33.35
2023-05-05T10:57:11.938Z,33.37
2023-05-05T10:58:11.909Z,33.37
2023-05-05T10:59:11.952Z,33.50
2023-05-05T11:00:13.460Z,33.49
2023-05-05T11:01:12.167Z,33.61
2023-05-05T11:02:12.152Z,33.82
2023-05-05T11:03:12.232Z,33.81
2023-05-05T11:04:12.303Z,33.95
2023-05-05T11:05:12.230Z,31.18
2023-05-05T11:06:12.176Z,30.01
2023-05-05T11:07:14.989Z,28.86
2023-05-05T11:08:12.142Z,28.99
2023-05-05T11:09:12.129Z,28.71
2023-05-05T11:10:12.358Z,28.83
2023-05-05T11:11:12.136Z,28.33
2023-05-05T11:12:12.336Z,28.99
2023-05-05T11:13:12.125Z,28.34
2023-05-05T11:14:12.125Z,28.05
2023-05-05T11:15:12.084Z,28.89
2023-05-05T11:16:12.135Z,28.99
2023-05-05T11:17:12.063Z,29.17
2023-05-05T11:18:12.123Z,29.26
2023-05-05T11:19:12.141Z,29.44
2023-05-05T11:20:12.119Z,29.45
2023-05-05T11:21:12.082Z,29.68
2023-05-05T11:22:12.025Z,29.74
2023-05-05T11:23:13.434Z,29.91
2023-05-05T11:24:12.023Z,29.91
2023-05-05T11:25:12.035Z,29.94
2023-05-05T11:26:12.022Z,30.12
2023-05-05T11:27:12.000Z,30.18
2023-05-05T11:28:12.197Z,30.19
2023-05-05T11:29:11.982Z,30.28
2023-05-05T11:30:12.179Z,30.33
2023-05-05T11:31:12.053Z,30.34
2023-05-05T11:32:11.964Z,30.41
2023-05-05T11:33:11.984Z,30.41
2023-05-05T11:34:11.961Z,30.49
2023-05-05T11:35:11.955Z,30.51
2023-05-05T11:36:12.135Z,30.55
2023-05-05T11:37:11.984Z,30.56
2023-05-05T11:38:11.978Z,30.59
2023-05-05T11:39:11.938Z,30.69
2023-05-05T11:40:12.009Z,30.79
2023-05-05T11:41:11.946Z,30.69
2023-05-05T11:42:11.905Z,30.82
2023-05-05T11:43:11.918Z,30.89
2023-05-05T11:44:11.889Z,30.99
2023-05-05T11:45:11.890Z,30.89
2023-05-05T11:46:11.891Z,30.94
2023-05-05T11:47:11.873Z,31.03
2023-05-05T11:48:11.954Z,31.07
2023-05-05T11:49:11.862Z,31.20
2023-05-05T11:50:11.897Z,31.20
2023-05-05T11:51:11.946Z,31.20
2023-05-05T11:52:11.897Z,31.29
2023-05-05T11:53:11.851Z,31.27
2023-05-05T11:54:11.830Z,31.34
2023-05-05T11:55:11.823Z,31.38
2023-05-05T11:56:11.809Z,31.39
2023-05-05T11:57:11.835Z,31.44
2023-05-05T11:58:11.831Z,31.54
2023-05-05T11:59:11.782Z,31.60
2023-05-05T12:00:11.912Z,31.59
2023-05-05T12:01:11.791Z,31.63
2023-05-05T12:02:11.756Z,31.64
2023-05-05T12:03:12.098Z,31.76
2023-05-05T12:04:11.863Z,31.77
2023-05-05T12:05:11.752Z,31.79
2023-05-05T12:06:11.727Z,31.83
2023-05-05T12:07:11.761Z,31.84
2023-05-05T12:08:11.994Z,31.90
2023-05-05T12:09:11.741Z,31.88
2023-05-05T12:10:11.760Z,31.91
2023-05-05T12:11:11.754Z,31.98
2023-05-05T12:12:11.701Z,31.95
2023-05-05T12:13:11.811Z,31.98
2023-05-05T12:14:11.807Z,32.05
2023-05-05T12:15:11.857Z,32.05
2023-05-05T12:16:11.936Z,32.10
2023-05-05T12:17:11.962Z,32.03
2023-05-05T12:18:12.054Z,32.08
2023-05-05T12:19:12.044Z,32.10
2023-05-05T12:20:12.419Z,32.15
2023-05-05T12:21:12.194Z,32.15
2023-05-05T12:22:12.193Z,32.22
2023-05-05T12:23:12.280Z,32.17
2023-05-05T12:24:12.316Z,32.22
2023-05-05T12:25:12.403Z,32.25
2023-05-05T12:26:12.414Z,32.26
2023-05-05T12:27:12.477Z,32.26
2023-05-05T12:28:12.553Z,32.27
2023-05-05T12:29:12.669Z,32.27
2023-05-05T12:30:12.707Z,32.30
2023-05-05T12:31:12.787Z,32.32
2023-05-05T12:32:12.861Z,32.35
2023-05-05T12:33:12.911Z,32.37
2023-05-05T12:34:12.937Z,32.40
2023-05-05T12:35:12.964Z,32.35
2023-05-05T12:36:13.012Z,32.40
2023-05-05T12:37:13.125Z,32.40
2023-05-05T12:38:13.201Z,32.40
2023-05-05T12:39:13.224Z,32.43
2023-05-05T12:40:13.349Z,32.43
2023-05-05T12:41:13.377Z,32.47
2023-05-05T12:42:13.388Z,32.48
2023-05-05T12:43:13.502Z,32.47
2023-05-05T12:44:13.522Z,32.53
2023-05-05T12:45:13.595Z,32.59
2023-05-05T12:46:13.661Z,32.50
2023-05-05T12:47:13.680Z,32.56
2023-05-05T12:48:14.028Z,32.57
2023-05-05T12:49:13.834Z,32.56
2023-05-05T12:50:13.890Z,32.60
2023-05-05T12:51:14.015Z,32.63
2023-05-05T12:52:13.981Z,32.59